Terminal Aerodrome Forecast
Issued by NWS

Home | Current Version | Previous Version | Text Only | Print | Product List | Glossary On
Versions: 1 2 3 4 5 6 7 8 9 10 11 12 13 14 15 16 17 18
000
FTUS43 KABR 191100
TAFMBG
TAF
KMBG 191123Z 1912/2012 33016G26KT P6SM BKN120
     FM191400 32023G31KT P6SM SKC
     FM191900 33027G37KT P6SM VCSH BKN050
     FM200100 32017KT P6SM SKC
     FM200400 32008KT P6SM SKC=

USA.gov is the U.S. government's official web portal to all federal, state and local government web resources and services.